sim
Sign-in with your pilot id or email,
or register
Callsign
Passwort

Schedule Details

Flight Number: OEO7262
Departure: Hamburg Airport (EDDH) at 06:30
Arrival: Fuerteventura Airport (GCFV) at 11:55

Weather Information
Getting current METAR information for EDDH 160320Z 14004KT CAVOK 02/M01 Q1024 NOSIG
Getting current METAR information for GCFV 160300Z AUTO 27006KT 9999 NCD 13/11 Q1017

Schedule Frequency

Route Map